createdAt,value
2023-02-14T00:00:49.248Z,24.90
2023-02-14T00:03:16.226Z,24.65
2023-02-14T00:05:43.161Z,24.88
2023-02-14T00:08:10.054Z,25.70
2023-02-14T00:10:37.195Z,24.40
2023-02-14T00:13:04.523Z,24.77
2023-02-14T00:15:31.443Z,25.20
2023-02-14T00:18:00.956Z,26.23
2023-02-14T00:20:28.316Z,25.55
2023-02-14T00:22:55.322Z,24.75
2023-02-14T00:25:22.349Z,25.17
2023-02-14T00:27:49.256Z,22.45
2023-02-14T00:30:16.322Z,24.05
2023-02-14T00:32:43.492Z,25.27
2023-02-14T00:35:10.596Z,23.92
2023-02-14T00:37:41.016Z,23.75
2023-02-14T00:40:08.472Z,23.58
2023-02-14T00:42:35.481Z,25.45
2023-02-14T00:45:02.385Z,24.92
2023-02-14T00:47:29.343Z,24.63
2023-02-14T00:49:56.272Z,25.38
2023-02-14T00:52:25.757Z,22.98
2023-02-14T00:54:52.792Z,23.10
2023-02-14T00:57:19.689Z,23.95
2023-02-14T00:59:46.617Z,24.17
2023-02-14T01:02:13.561Z,23.23
2023-02-14T01:04:40.514Z,24.23
2023-02-14T01:07:07.471Z,25.02
2023-02-14T01:09:35.234Z,23.20
2023-02-14T01:12:02.479Z,24.35
2023-02-14T01:14:29.395Z,24.38
2023-02-14T01:16:56.429Z,24.55
2023-02-14T01:19:24.637Z,23.02
2023-02-14T01:21:51.545Z,23.15
2023-02-14T01:24:18.427Z,22.70
2023-02-14T01:26:45.328Z,22.45
2023-02-14T01:29:12.230Z,21.42
2023-02-14T01:31:39.361Z,22.00
2023-02-14T01:34:06.431Z,21.98
2023-02-14T01:36:37.791Z,20.83
2023-02-14T01:39:11.545Z,22.52
2023-02-14T01:41:38.761Z,19.63
2023-02-14T01:44:08.229Z,21.30
2023-02-14T01:46:36.784Z,21.55
2023-02-14T01:49:15.868Z,22.00
2023-02-14T01:51:45.241Z,21.15
2023-02-14T01:54:13.119Z,20.92
2023-02-14T01:56:45.256Z,21.50
2023-02-14T01:59:14.389Z,22.55
2023-02-14T02:01:43.135Z,21.15
2023-02-14T02:04:12.295Z,21.83
2023-02-14T02:06:46.047Z,20.33
2023-02-14T02:09:18.753Z,20.90
2023-02-14T02:11:45.720Z,21.20
2023-02-14T02:14:20.756Z,20.55
2023-02-14T02:17:06.583Z,21.60
2023-02-14T02:20:00.543Z,21.90
2023-02-14T02:22:52.053Z,21.33
2023-02-14T02:25:46.342Z,21.05
2023-02-14T02:28:31.202Z,21.73
2023-02-14T02:31:17.122Z,22.08
2023-02-14T02:34:01.183Z,23.35
2023-02-14T02:36:47.098Z,21.45
2023-02-14T02:39:49.366Z,21.77
2023-02-14T02:42:39.965Z,22.90
2023-02-14T02:45:19.857Z,22.98
2023-02-14T02:48:15.207Z,23.52
2023-02-14T02:51:02.310Z,22.10
2023-02-14T02:53:43.936Z,22.83
2023-02-14T02:56:45.435Z,24.25
2023-02-14T02:59:20.611Z,22.70
2023-02-14T03:02:09.925Z,21.90
2023-02-14T03:04:53.203Z,22.42
2023-02-14T03:07:35.539Z,22.65
2023-02-14T03:10:11.119Z,21.70
2023-02-14T03:12:51.385Z,22.67
2023-02-14T03:15:55.857Z,21.27
2023-02-14T03:18:50.840Z,21.98
2023-02-14T03:21:26.625Z,23.35
2023-02-14T03:24:11.486Z,23.95
2023-02-14T03:26:40.495Z,22.92
2023-02-14T03:29:14.596Z,23.30
2023-02-14T03:31:41.917Z,22.42
2023-02-14T03:34:17.769Z,22.92
2023-02-14T03:36:48.556Z,23.00
2023-02-14T03:39:29.991Z,23.35
2023-02-14T03:42:06.172Z,23.45
2023-02-14T03:44:34.341Z,22.58
2023-02-14T03:47:12.795Z,21.70
2023-02-14T03:49:42.443Z,21.02
2023-02-14T03:52:09.775Z,22.23
2023-02-14T03:54:36.827Z,21.20
2023-02-14T03:57:33.536Z,20.83
2023-02-14T04:00:00.567Z,22.00
2023-02-14T04:02:52.678Z,21.27
2023-02-14T04:05:26.756Z,21.98
2023-02-14T04:07:58.014Z,19.98
2023-02-14T04:10:25.138Z,21.55
2023-02-14T04:12:53.120Z,21.98
2023-02-14T04:15:20.332Z,21.55
2023-02-14T04:18:05.604Z,22.98
2023-02-14T04:20:32.689Z,21.90
2023-02-14T04:23:00.888Z,20.38
2023-02-14T04:25:29.476Z,21.95
2023-02-14T04:27:56.476Z,22.58
2023-02-14T04:30:23.526Z,22.30
2023-02-14T04:32:50.543Z,21.58
2023-02-14T04:35:17.525Z,22.42
2023-02-14T04:37:45.749Z,21.80
2023-02-14T04:40:16.847Z,21.60
2023-02-14T04:42:44.987Z,21.75
2023-02-14T04:45:11.959Z,21.08
2023-02-14T04:47:38.974Z,21.08
2023-02-14T04:50:06.657Z,21.38
2023-02-14T04:52:33.582Z,22.65
2023-02-14T04:55:00.530Z,21.10
2023-02-14T04:57:27.474Z,21.60
2023-02-14T04:59:54.336Z,20.98
2023-02-14T05:02:21.441Z,22.17
2023-02-14T05:04:49.826Z,22.40
2023-02-14T05:07:16.971Z,22.00
2023-02-14T05:09:43.979Z,22.77
2023-02-14T05:12:10.966Z,22.58
2023-02-14T05:14:37.861Z,21.85
2023-02-14T05:17:04.809Z,21.45
2023-02-14T05:19:31.723Z,21.70
2023-02-14T05:21:58.664Z,21.98
2023-02-14T05:24:25.626Z,22.65
2023-02-14T05:26:52.534Z,21.23
2023-02-14T05:29:19.423Z,21.02
2023-02-14T05:31:46.420Z,21.15
2023-02-14T05:34:13.337Z,21.48
2023-02-14T05:36:40.267Z,21.67
2023-02-14T05:39:07.191Z,22.77
2023-02-14T05:41:34.246Z,22.00
2023-02-14T05:44:01.248Z,21.33
2023-02-14T05:46:28.248Z,21.58
2023-02-14T05:48:55.143Z,21.60
2023-02-14T05:51:22.058Z,22.00
2023-02-14T05:53:49.066Z,21.98
2023-02-14T05:56:16.183Z,21.95
2023-02-14T05:58:43.653Z,21.83
2023-02-14T06:01:10.577Z,21.52
2023-02-14T06:03:37.543Z,21.40
2023-02-14T06:06:04.550Z,22.73
2023-02-14T06:08:31.443Z,22.20
2023-02-14T06:10:58.788Z,22.00
2023-02-14T06:13:25.903Z,21.67
2023-02-14T06:15:52.844Z,22.60
2023-02-14T06:18:19.732Z,22.02
2023-02-14T06:20:46.650Z,22.10
2023-02-14T06:23:13.606Z,22.13
2023-02-14T06:25:40.611Z,21.45
2023-02-14T06:28:07.561Z,23.73
2023-02-14T06:30:34.522Z,23.48
2023-02-14T06:33:04.567Z,22.42
2023-02-14T06:35:31.541Z,21.80
2023-02-14T06:37:58.500Z,20.98
2023-02-14T06:40:25.442Z,23.00
2023-02-14T06:42:52.367Z,23.23
2023-02-14T06:45:19.344Z,21.25
2023-02-14T06:47:46.385Z,22.67
2023-02-14T06:50:13.392Z,22.40
2023-02-14T06:52:42.069Z,22.85
2023-02-14T06:55:09.210Z,22.85
2023-02-14T06:57:36.175Z,22.05
2023-02-14T07:00:03.762Z,23.55
2023-02-14T07:02:30.719Z,21.80
2023-02-14T07:04:57.953Z,20.77
2023-02-14T07:07:24.980Z,21.70
2023-02-14T07:09:52.154Z,22.50
2023-02-14T07:12:19.029Z,21.95
2023-02-14T07:14:46.008Z,22.52
2023-02-14T07:17:12.992Z,22.80
2023-02-14T07:19:39.861Z,22.75
2023-02-14T07:22:06.770Z,23.05
2023-02-14T07:24:33.719Z,22.17
2023-02-14T07:27:00.833Z,21.50
2023-02-14T07:29:27.740Z,22.95
2023-02-14T07:31:54.770Z,23.98
2023-02-14T07:34:21.727Z,23.95
2023-02-14T07:36:48.709Z,23.33
2023-02-14T07:39:15.718Z,22.92
2023-02-14T07:41:42.695Z,24.20
2023-02-14T07:44:10.708Z,23.50
2023-02-14T07:46:37.704Z,23.02
2023-02-14T07:49:04.727Z,23.00
2023-02-14T07:51:31.718Z,24.05
2023-02-14T07:53:58.848Z,25.75
2023-02-14T07:56:26.046Z,25.17
2023-02-14T07:58:53.001Z,23.65
2023-02-14T08:01:21.040Z,25.05
2023-02-14T08:03:51.561Z,24.92
2023-02-14T08:06:19.045Z,26.17
2023-02-14T08:08:46.063Z,26.40
2023-02-14T08:11:33.023Z,26.42
2023-02-14T08:14:00.004Z,23.88
2023-02-14T08:16:27.001Z,24.63
2023-02-14T08:18:56.852Z,24.63
2023-02-14T08:21:23.712Z,25.30
2023-02-14T08:23:50.648Z,25.55
2023-02-14T08:26:17.610Z,25.27
2023-02-14T08:28:44.856Z,24.65
2023-02-14T08:31:12.018Z,24.88
2023-02-14T08:33:38.998Z,23.92
2023-02-14T08:36:06.227Z,23.52
2023-02-14T08:38:33.388Z,25.60
2023-02-14T08:41:03.759Z,25.27
2023-02-14T08:43:34.190Z,24.42
2023-02-14T08:46:02.051Z,24.85
2023-02-14T08:48:29.155Z,24.92
2023-02-14T08:50:56.087Z,25.30
2023-02-14T08:53:23.049Z,24.33
2023-02-14T08:55:50.039Z,23.45
2023-02-14T08:58:17.174Z,23.77
2023-02-14T09:00:44.298Z,24.13
2023-02-14T09:03:11.250Z,22.05
2023-02-14T09:05:38.280Z,20.73
2023-02-14T09:08:05.288Z,22.27
2023-02-14T09:10:32.234Z,21.83
2023-02-14T09:12:59.209Z,22.17
2023-02-14T09:15:26.170Z,23.20
2023-02-14T09:17:53.236Z,20.42
2023-02-14T09:20:20.368Z,20.60
2023-02-14T09:22:48.804Z,23.90
2023-02-14T09:25:16.473Z,23.85
2023-02-14T09:27:43.624Z,24.90
2023-02-14T09:30:11.250Z,24.40
2023-02-14T09:32:38.628Z,25.48
2023-02-14T09:35:24.419Z,24.40
2023-02-14T09:37:51.437Z,26.73
2023-02-14T09:40:19.422Z,24.25
2023-02-14T09:42:53.741Z,26.10
2023-02-14T09:45:27.945Z,27.10
2023-02-14T09:48:02.223Z,29.13
2023-02-14T09:50:58.708Z,31.15
2023-02-14T09:53:31.132Z,31.92
2023-02-14T09:56:20.756Z,33.28
2023-02-14T09:59:00.206Z,32.70
2023-02-14T10:01:30.905Z,34.65
2023-02-14T10:04:22.994Z,34.07
2023-02-14T10:07:01.384Z,31.67
2023-02-14T10:09:44.080Z,30.80
2023-02-14T10:12:26.260Z,32.75
2023-02-14T10:14:55.496Z,32.83
2023-02-14T10:17:34.931Z,31.83
2023-02-14T10:20:03.744Z,32.08
2023-02-14T10:22:40.385Z,31.60
2023-02-14T10:25:39.353Z,29.95
2023-02-14T10:28:06.302Z,31.27
2023-02-14T10:30:39.683Z,30.40
2023-02-14T10:33:19.521Z,30.33
2023-02-14T10:35:55.938Z,28.15
2023-02-14T10:39:16.497Z,32.10
2023-02-14T10:42:10.174Z,34.78
2023-02-14T10:44:40.269Z,34.58
2023-02-14T10:47:58.639Z,36.28
2023-02-14T10:50:44.567Z,32.38
2023-02-14T10:53:32.970Z,27.88
2023-02-14T10:56:18.573Z,28.83
2023-02-14T10:58:46.044Z,28.67
2023-02-14T11:01:17.796Z,28.13
2023-02-14T11:06:20.092Z,27.50
2023-02-14T11:08:47.067Z,27.05
2023-02-14T11:11:28.551Z,27.30
2023-02-14T11:13:55.548Z,26.38
2023-02-14T11:16:30.118Z,27.45
2023-02-14T11:19:20.024Z,28.38
2023-02-14T11:21:47.630Z,28.83
2023-02-14T11:24:27.230Z,26.30
2023-02-14T11:26:55.900Z,25.50
2023-02-14T11:29:49.020Z,25.98
2023-02-14T11:32:20.842Z,25.85
2023-02-14T11:37:26.080Z,25.55
2023-02-14T11:39:55.082Z,23.60
2023-02-14T11:42:44.052Z,24.10
2023-02-14T11:45:40.827Z,20.45
2023-02-14T11:48:31.485Z,20.08
2023-02-14T11:51:07.552Z,18.17
2023-02-14T11:53:56.023Z,17.13
2023-02-14T11:56:23.577Z,14.15
2023-02-14T11:58:57.959Z,12.95
2023-02-14T12:01:35.525Z,11.80
2023-02-14T12:04:07.413Z,10.02
2023-02-14T12:06:35.511Z,10.35
2023-02-14T12:09:24.806Z,9.82
2023-02-14T12:11:59.450Z,9.60
2023-02-14T12:14:31.577Z,9.85
2023-02-14T12:17:05.219Z,9.80
2023-02-14T12:19:58.935Z,8.02
2023-02-14T12:22:29.330Z,7.32
2023-02-14T12:25:27.281Z,7.18
2023-02-14T12:28:01.492Z,7.22
2023-02-14T12:30:30.463Z,7.13
2023-02-14T12:32:57.442Z,7.95
2023-02-14T12:35:49.247Z,8.73
2023-02-14T12:38:21.814Z,10.60
2023-02-14T12:41:16.522Z,9.02
2023-02-14T12:43:50.844Z,16.67
2023-02-14T12:46:29.919Z,15.55
2023-02-14T12:49:15.733Z,14.93
2023-02-14T12:52:06.199Z,18.50
2023-02-14T12:54:39.288Z,20.15
2023-02-14T12:57:21.289Z,21.23
2023-02-14T13:00:12.324Z,20.77
2023-02-14T13:03:05.747Z,22.80
2023-02-14T13:06:05.715Z,22.65
2023-02-14T13:08:40.990Z,21.50
2023-02-14T13:11:35.833Z,21.05
2023-02-14T13:14:27.274Z,22.83
2023-02-14T13:17:03.577Z,19.40
2023-02-14T13:20:25.470Z,17.95
2023-02-14T13:22:52.481Z,18.50
2023-02-14T13:25:54.368Z,16.70
2023-02-14T13:28:21.414Z,14.38
2023-02-14T13:30:48.391Z,13.00
2023-02-14T13:33:25.770Z,12.70
2023-02-14T13:35:55.543Z,11.75
2023-02-14T13:38:22.494Z,11.20
2023-02-14T13:40:49.450Z,9.43
2023-02-14T13:43:49.818Z,8.90
2023-02-14T13:46:49.581Z,9.05
2023-02-14T13:49:27.247Z,8.15
2023-02-14T13:51:59.373Z,9.18
2023-02-14T13:54:44.999Z,9.25
2023-02-14T13:57:25.926Z,10.02
2023-02-14T14:00:17.896Z,9.43
2023-02-14T14:02:45.812Z,9.70
2023-02-14T14:05:32.606Z,9.73
2023-02-14T14:08:32.099Z,9.48
2023-02-14T14:11:00.482Z,9.13
2023-02-14T14:13:42.536Z,9.82
2023-02-14T14:16:27.693Z,9.32
2023-02-14T14:19:30.592Z,8.85
2023-02-14T14:22:05.132Z,8.50
2023-02-14T14:24:36.042Z,8.00
2023-02-14T14:27:25.167Z,8.00
2023-02-14T14:29:57.127Z,8.40
2023-02-14T14:32:37.784Z,8.98
2023-02-14T14:35:21.353Z,8.77
2023-02-14T14:37:55.719Z,9.27
2023-02-14T14:40:36.967Z,8.93
2023-02-14T14:43:21.704Z,8.20
2023-02-14T14:45:48.978Z,8.38
2023-02-14T14:48:42.343Z,8.80
2023-02-14T14:51:15.379Z,9.60
2023-02-14T14:54:08.063Z,9.38
2023-02-14T14:56:36.770Z,9.27
2023-02-14T14:59:30.628Z,9.50
2023-02-14T15:01:58.199Z,7.32
2023-02-14T15:04:35.402Z,7.80
2023-02-14T15:07:20.991Z,7.80
2023-02-14T15:09:48.518Z,8.35
2023-02-14T15:12:35.843Z,7.90
2023-02-14T15:15:02.827Z,7.60
2023-02-14T15:17:30.756Z,7.50
2023-02-14T15:20:02.114Z,7.60
2023-02-14T15:22:35.278Z,7.70
2023-02-14T15:25:02.172Z,7.22
2023-02-14T15:27:29.256Z,7.78
2023-02-14T15:30:04.668Z,8.15
2023-02-14T15:32:33.015Z,8.43
2023-02-14T15:35:01.245Z,9.68
2023-02-14T15:37:28.243Z,9.63
2023-02-14T15:39:55.913Z,9.38
2023-02-14T15:42:25.899Z,9.93
2023-02-14T15:45:15.084Z,10.20
2023-02-14T15:47:43.392Z,9.18
2023-02-14T15:50:20.991Z,9.77
2023-02-14T15:52:47.963Z,9.30
2023-02-14T15:55:20.312Z,9.18
2023-02-14T15:57:51.384Z,9.32
2023-02-14T16:00:18.888Z,9.10
2023-02-14T16:02:48.996Z,10.40
2023-02-14T16:05:18.316Z,10.13
2023-02-14T16:08:07.844Z,9.98
2023-02-14T16:10:38.312Z,9.20
2023-02-14T16:13:14.951Z,9.85
2023-02-14T16:15:59.642Z,9.50
2023-02-14T16:18:37.448Z,9.90
2023-02-14T16:21:13.804Z,10.07
2023-02-14T16:23:41.124Z,10.25
2023-02-14T16:26:08.376Z,10.02
2023-02-14T16:28:36.957Z,9.80
2023-02-14T16:31:06.120Z,9.93
2023-02-14T16:33:35.372Z,10.82
2023-02-14T16:36:25.599Z,10.70
2023-02-14T16:38:53.062Z,10.10
2023-02-14T16:41:21.834Z,10.40
2023-02-14T16:43:49.238Z,11.57
2023-02-14T16:46:18.287Z,11.70
2023-02-14T16:48:52.398Z,12.00
2023-02-14T16:51:21.175Z,11.18
2023-02-14T16:53:48.239Z,11.27
2023-02-14T16:56:21.563Z,11.65
2023-02-14T16:58:48.479Z,11.43
2023-02-14T17:01:16.667Z,11.65
2023-02-14T17:03:44.806Z,11.45
2023-02-14T17:06:13.612Z,11.27
2023-02-14T17:08:40.600Z,10.75
2023-02-14T17:11:07.701Z,13.63
2023-02-14T17:13:34.898Z,11.00
2023-02-14T17:16:02.095Z,11.07
2023-02-14T17:18:30.133Z,12.10
2023-02-14T17:20:57.609Z,11.23
2023-02-14T17:23:25.100Z,10.93
2023-02-14T17:25:52.203Z,12.13
2023-02-14T17:28:19.232Z,11.63
2023-02-14T17:30:46.942Z,11.93
2023-02-14T17:33:14.154Z,12.15
2023-02-14T17:35:41.097Z,11.20
2023-02-14T17:38:08.075Z,10.88
2023-02-14T17:40:35.140Z,11.43
2023-02-14T17:43:02.126Z,12.10
2023-02-14T17:45:29.089Z,12.80
2023-02-14T17:47:56.043Z,12.45
2023-02-14T17:50:22.970Z,12.00
2023-02-14T17:52:54.232Z,12.60
2023-02-14T17:55:21.181Z,12.68
2023-02-14T17:57:52.462Z,13.00
2023-02-14T18:00:22.409Z,14.40
2023-02-14T18:02:49.381Z,12.95
2023-02-14T18:05:17.159Z,13.48
2023-02-14T18:07:44.166Z,14.27
2023-02-14T18:10:11.579Z,14.45
2023-02-14T18:12:38.583Z,13.88
2023-02-14T18:15:06.057Z,14.93
2023-02-14T18:17:33.054Z,15.30
2023-02-14T18:20:00.122Z,14.50
2023-02-14T18:22:28.571Z,14.82
2023-02-14T18:24:58.768Z,14.02
2023-02-14T18:27:26.210Z,14.85
2023-02-14T18:29:53.359Z,15.18
2023-02-14T18:32:20.406Z,15.52
2023-02-14T18:34:47.332Z,16.02
2023-02-14T18:37:14.395Z,15.98
2023-02-14T18:39:41.348Z,15.43
2023-02-14T18:42:08.350Z,15.60
2023-02-14T18:44:35.507Z,14.77
2023-02-14T18:47:02.867Z,15.00
2023-02-14T18:49:29.881Z,15.00
2023-02-14T18:51:58.849Z,15.52
2023-02-14T18:54:25.944Z,15.73
2023-02-14T18:56:53.034Z,16.02
2023-02-14T18:59:19.997Z,16.38
2023-02-14T19:01:47.387Z,16.42
2023-02-14T19:04:14.667Z,15.40
2023-02-14T19:06:41.964Z,16.95
2023-02-14T19:09:13.517Z,16.10
2023-02-14T19:11:40.852Z,16.08
2023-02-14T19:14:10.344Z,15.68
2023-02-14T19:16:50.317Z,15.52
2023-02-14T19:19:18.033Z,15.70
2023-02-14T19:21:45.017Z,16.75
2023-02-14T19:24:12.020Z,16.40
2023-02-14T19:26:40.733Z,16.58
2023-02-14T19:29:10.607Z,16.10
2023-02-14T19:31:39.126Z,16.65
2023-02-14T19:34:06.925Z,16.77
2023-02-14T19:36:36.208Z,18.08
2023-02-14T19:39:03.311Z,17.55
2023-02-14T19:41:31.695Z,17.33
2023-02-14T19:43:59.086Z,18.25
2023-02-14T19:46:26.891Z,18.15
2023-02-14T19:48:56.608Z,19.30
2023-02-14T19:51:28.908Z,19.10
2023-02-14T19:53:56.622Z,17.75
2023-02-14T19:56:31.429Z,19.33
2023-02-14T19:58:58.590Z,18.83
2023-02-14T20:01:51.266Z,18.95
2023-02-14T20:04:25.961Z,19.55
2023-02-14T20:06:53.138Z,19.42
2023-02-14T20:09:21.807Z,20.20
2023-02-14T20:11:54.542Z,19.50
2023-02-14T20:14:26.226Z,19.77
2023-02-14T20:16:53.743Z,20.25
2023-02-14T20:19:21.858Z,20.75
2023-02-14T20:21:49.974Z,19.83
2023-02-14T20:24:21.874Z,19.60
2023-02-14T20:29:16.865Z,20.13
2023-02-14T20:31:46.732Z,20.67
2023-02-14T20:34:13.953Z,20.60
2023-02-14T20:36:41.204Z,21.40
2023-02-14T20:39:08.886Z,20.88
2023-02-14T20:41:36.087Z,21.92
2023-02-14T20:44:12.586Z,22.17
2023-02-14T20:46:39.544Z,20.85
2023-02-14T20:49:06.561Z,21.90
2023-02-14T20:51:35.106Z,20.35
2023-02-14T20:54:03.618Z,21.40
2023-02-14T20:56:30.653Z,21.75
2023-02-14T20:58:57.583Z,21.27
2023-02-14T21:01:24.669Z,22.77
2023-02-14T21:03:52.732Z,23.02
2023-02-14T21:06:21.128Z,23.15
2023-02-14T21:08:48.381Z,23.70
2023-02-14T21:11:16.504Z,22.45
2023-02-14T21:13:43.646Z,22.35
2023-02-14T21:16:15.524Z,21.23
2023-02-14T21:18:43.689Z,21.08
2023-02-14T21:21:34.870Z,23.02
2023-02-14T21:24:12.599Z,21.35
2023-02-14T21:26:39.597Z,23.52
2023-02-14T21:29:06.683Z,21.70
2023-02-14T21:31:33.939Z,23.23
2023-02-14T21:34:01.652Z,23.52
2023-02-14T21:36:30.135Z,23.55
2023-02-14T21:38:58.419Z,25.55
2023-02-14T21:41:27.239Z,24.88
2023-02-14T21:43:55.180Z,22.98
2023-02-14T21:46:27.520Z,23.60
2023-02-14T21:49:13.740Z,24.50
2023-02-14T21:51:40.703Z,26.20
2023-02-14T21:54:07.797Z,24.63
2023-02-14T21:56:35.240Z,24.25
2023-02-14T21:59:02.160Z,24.50
2023-02-14T22:01:33.255Z,23.73
2023-02-14T22:04:00.630Z,23.95
2023-02-14T22:06:28.001Z,25.38
2023-02-14T22:08:56.402Z,25.73
2023-02-14T22:11:24.017Z,25.10
2023-02-14T22:13:51.128Z,26.38
2023-02-14T22:16:19.605Z,25.08
2023-02-14T22:18:49.321Z,26.70
2023-02-14T22:21:23.918Z,26.02
2023-02-14T22:23:50.965Z,26.15
2023-02-14T22:26:17.897Z,24.58
2023-02-14T22:28:46.838Z,25.45
2023-02-14T22:31:14.477Z,25.15
2023-02-14T22:33:41.776Z,24.90
2023-02-14T22:36:08.962Z,25.08
2023-02-14T22:38:36.108Z,25.67
2023-02-14T22:41:19.046Z,26.98
2023-02-14T22:43:46.191Z,25.33
2023-02-14T22:46:24.235Z,26.63
2023-02-14T22:48:51.693Z,26.23
2023-02-14T22:51:29.449Z,25.33
2023-02-14T22:53:58.141Z,25.73
2023-02-14T22:56:44.711Z,26.40
2023-02-14T22:59:22.031Z,26.00
2023-02-14T23:01:49.758Z,24.33
2023-02-14T23:04:17.511Z,27.13
2023-02-14T23:06:44.487Z,25.33
2023-02-14T23:09:11.724Z,25.60
2023-02-14T23:11:39.379Z,26.40
2023-02-14T23:14:25.072Z,27.75
2023-02-14T23:17:10.586Z,26.20
2023-02-14T23:19:55.836Z,26.60
2023-02-14T23:22:23.692Z,25.70
2023-02-14T23:24:52.801Z,25.83
2023-02-14T23:27:21.940Z,27.50
2023-02-14T23:29:49.105Z,27.02
2023-02-14T23:32:16.357Z,27.92
2023-02-14T23:34:43.913Z,27.02
2023-02-14T23:37:11.178Z,27.83
2023-02-14T23:39:38.237Z,26.90
2023-02-14T23:42:06.220Z,27.13
2023-02-14T23:44:33.360Z,27.85
2023-02-14T23:47:04.288Z,26.75
2023-02-14T23:49:32.626Z,28.48
2023-02-14T23:51:59.787Z,27.35
2023-02-14T23:54:26.826Z,27.17
2023-02-14T23:56:54.147Z,26.90
2023-02-14T23:59:21.462Z,28.05
